Time;durP1;ratioP1;P1;durP2;ratioP2;P2;SDS_P1;SDS_P2;PMS_P1;PMS_P2;Temp;Humidity;BMP_temperature;BMP_pressure;BME280_temperature;BME280_humidity;BME280_pressure;Samples;Min_cycle;Max_cycle;Signal;HPM_P1;HPM_P2
2021/09/01 00:02:33;;;;;;;5.20;4.45;;;;;;;14.60;94.05;96981.91;5221571;56;20122;-72
2021/09/01 00:07:37;;;;;;;6.97;4.30;;;;;;;14.50;93.33;96980.41;5221284;56;20131;-73
2021/09/01 00:12:39;;;;;;;6.25;4.00;;;;;;;14.58;93.10;96976.06;5221436;56;20113;-73
2021/09/01 00:17:42;;;;;;;5.22;4.25;;;;;;;14.50;92.47;96993.53;5221544;56;20732;-73
2021/09/01 00:22:44;;;;;;;4.80;4.10;;;;;;;14.42;92.42;96981.22;5221376;56;20582;-72
2021/09/01 00:27:47;;;;;;;4.88;4.43;;;;;;;14.36;92.63;96993.00;5220656;56;20131;-73
2021/09/01 00:32:49;;;;;;;6.28;4.20;;;;;;;14.14;92.90;96991.69;5212551;56;20113;-73
2021/09/01 00:37:52;;;;;;;5.10;4.20;;;;;;;13.97;92.88;96993.28;5220786;56;20127;-73
2021/09/01 00:42:55;;;;;;;5.15;4.57;;;;;;;13.82;94.37;96995.94;5221700;56;20114;-72
2021/09/01 00:47:58;;;;;;;5.20;4.18;;;;;;;13.80;93.81;96997.66;5220852;56;20131;-72
2021/09/01 00:53:00;;;;;;;7.07;4.47;;;;;;;13.63;93.60;96997.25;5220885;56;20126;-73
2021/09/01 00:58:02;;;;;;;5.00;4.18;;;;;;;13.58;93.71;96998.66;5220588;56;20140;-73
2021/09/01 01:03:05;;;;;;;5.28;4.47;;;;;;;13.54;93.23;96997.25;5220709;56;20140;-73
2021/09/01 01:08:08;;;;;;;5.18;4.32;;;;;;;13.60;93.62;96998.94;5220366;56;20171;-73
2021/09/01 01:13:14;;;;;;;6.32;4.93;;;;;;;13.47;93.14;97000.34;5220599;56;20117;-72
2021/09/01 01:18:17;;;;;;;6.05;4.45;;;;;;;13.32;93.05;96997.44;5211468;56;20114;-73
2021/09/01 01:23:22;;;;;;;6.97;4.55;;;;;;;13.39;92.85;97001.88;5220262;56;20122;-73
2021/09/01 01:28:24;;;;;;;4.78;3.72;;;;;;;13.33;92.13;96992.66;5220101;56;20127;-74
2021/09/01 01:33:26;;;;;;;4.00;3.60;;;;;;;13.15;92.14;96996.22;5220298;56;20123;-72
2021/09/01 01:38:31;;;;;;;4.78;3.90;;;;;;;13.02;92.15;97011.44;5221547;56;20109;-73
2021/09/01 01:43:36;;;;;;;4.85;4.20;;;;;;;12.91;92.35;97001.56;5223676;56;20131;-73
2021/09/01 01:48:39;;;;;;;4.65;4.10;;;;;;;12.88;92.27;96994.16;5223308;56;20126;-74
2021/09/01 01:53:41;;;;;;;4.57;4.13;;;;;;;12.81;92.62;97005.56;5223782;56;20109;-73
2021/09/01 01:58:44;;;;;;;4.35;3.95;;;;;;;12.78;92.39;96995.38;5223229;56;20122;-73
2021/09/01 02:03:46;;;;;;;6.47;4.47;;;;;;;12.79;91.93;97004.47;5223484;56;20118;-73
2021/09/01 02:08:48;;;;;;;4.38;3.97;;;;;;;12.72;91.55;97002.78;5223334;56;20135;-73
2021/09/01 02:13:51;;;;;;;4.78;4.07;;;;;;;12.52;92.03;97004.44;5223558;56;20118;-73
2021/09/01 02:18:54;;;;;;;5.07;4.25;;;;;;;12.44;91.95;97009.47;5223115;56;20645;-73
2021/09/01 02:23:56;;;;;;;5.45;4.57;;;;;;;12.34;93.70;97015.47;5223247;56;20148;-72
2021/09/01 02:28:59;;;;;;;4.53;4.10;;;;;;;12.25;93.55;97007.91;5222855;56;20614;-71
2021/09/01 02:34:01;;;;;;;6.28;4.90;;;;;;;12.37;93.10;97006.25;5225047;56;20114;-73
2021/09/01 02:39:04;;;;;;;4.97;4.03;;;;;;;12.34;92.55;97012.69;5231429;56;20131;-72
2021/09/01 02:44:07;;;;;;;4.90;4.13;;;;;;;12.32;91.78;97013.16;5222858;56;20145;-72
2021/09/01 02:49:09;;;;;;;3.88;3.55;;;;;;;12.27;91.97;97013.75;5222199;56;20135;-71
2021/09/01 02:54:12;;;;;;;3.90;3.55;;;;;;;12.17;92.07;97010.16;5222731;56;20609;-72
2021/09/01 02:59:14;;;;;;;3.45;3.20;;;;;;;12.09;91.80;97013.69;5222829;56;20131;-72
2021/09/01 03:04:16;;;;;;;4.00;3.00;;;;;;;11.99;91.76;97017.63;5223016;56;20118;-71
2021/09/01 03:09:18;;;;;;;4.80;3.85;;;;;;;12.03;91.51;97018.28;5222430;56;20131;-71
2021/09/01 03:14:21;;;;;;;3.58;3.28;;;;;;;12.05;91.38;97024.88;5222808;56;20131;-72
2021/09/01 03:19:23;;;;;;;3.60;3.30;;;;;;;11.91;90.87;97013.59;5222484;56;20224;-72
2021/09/01 03:24:26;;;;;;;4.32;3.78;;;;;;;11.80;90.97;97007.69;5222527;56;20145;-71
2021/09/01 03:29:29;;;;;;;4.82;3.92;;;;;;;11.62;91.67;97015.84;5221900;56;20140;-72
2021/09/01 03:34:32;;;;;;;4.47;3.78;;;;;;;11.61;91.70;97019.84;5222371;56;20145;-72
2021/09/01 03:39:34;;;;;;;5.00;4.35;;;;;;;11.58;91.65;97024.28;5221625;56;20130;-71
2021/09/01 03:44:36;;;;;;;4.70;4.13;;;;;;;11.60;91.74;97032.94;5221945;56;20113;-72
2021/09/01 03:49:39;;;;;;;5.60;3.83;;;;;;;11.59;91.20;97031.38;5221476;56;20170;-72
2021/09/01 03:54:41;;;;;;;3.75;3.45;;;;;;;11.61;91.12;97028.16;5221864;56;20113;-72
2021/09/01 03:59:44;;;;;;;4.72;3.70;;;;;;;11.65;91.43;97026.00;5221205;56;20140;-72
2021/09/01 04:04:46;;;;;;;6.32;4.00;;;;;;;11.77;90.78;97030.75;5221364;56;20587;-72
2021/09/01 04:09:48;;;;;;;4.25;3.60;;;;;;;11.44;91.17;97039.41;5221350;56;20157;-70
2021/09/01 04:14:51;;;;;;;5.85;4.22;;;;;;;11.51;91.20;97039.16;5221414;56;20118;-72
2021/09/01 04:19:53;;;;;;;3.95;3.60;;;;;;;11.55;91.05;97036.28;5221202;56;20123;-73
2021/09/01 04:24:56;;;;;;;3.88;3.58;;;;;;;11.34;90.73;97043.34;5221359;56;20157;-73
2021/09/01 04:29:58;;;;;;;4.55;4.15;;;;;;;11.38;91.49;97038.44;5220985;56;20693;-73
2021/09/01 04:35:01;;;;;;;5.15;3.90;;;;;;;11.37;91.43;97048.00;5221371;56;20577;-73
2021/09/01 04:40:05;;;;;;;5.15;4.05;;;;;;;11.44;90.64;97042.19;5220819;56;20219;-74
2021/09/01 04:45:08;;;;;;;4.70;4.28;;;;;;;11.51;90.71;97036.38;5221296;56;20140;-73
2021/09/01 04:50:10;;;;;;;3.88;3.35;;;;;;;11.53;90.82;97045.00;5221146;56;20613;-73
2021/09/01 04:55:15;;;;;;;5.78;3.95;;;;;;;11.47;90.90;97046.81;5221038;56;20139;-73
2021/09/01 05:00:17;;;;;;;5.57;4.47;;;;;;;11.61;91.27;97045.53;5212095;56;20118;-73
2021/09/01 05:05:20;;;;;;;7.97;4.45;;;;;;;11.78;90.11;97054.44;5220813;56;20656;-73
2021/09/01 05:10:22;;;;;;;5.80;4.30;;;;;;;11.79;90.47;97058.75;5220492;56;20140;-73
2021/09/01 05:15:25;;;;;;;5.07;4.30;;;;;;;12.03;90.32;97055.03;5220406;56;20585;-74
2021/09/01 05:20:27;;;;;;;6.13;4.78;;;;;;;12.27;89.60;97063.63;5220560;56;20595;-73
2021/09/01 05:25:30;;;;;;;5.35;4.22;;;;;;;12.45;89.21;97069.25;5220475;56;20126;-74
2021/09/01 05:30:35;;;;;;;6.82;4.75;;;;;;;12.70;89.17;97068.25;5220407;56;20136;-73
2021/09/01 05:35:38;;;;;;;6.82;4.75;;;;;;;12.93;89.18;97076.75;5220120;56;20592;-73
2021/09/01 05:40:41;;;;;;;5.50;4.70;;;;;;;13.11;88.61;97087.16;5220664;56;20113;-73
2021/09/01 05:45:45;;;;;;;10.07;5.75;;;;;;;13.26;90.31;97076.22;5219413;56;20667;-73
2021/09/01 05:50:53;;;;;;;7.80;6.25;;;;;;;13.38;92.02;97078.09;5220196;56;20591;-73
2021/09/01 05:55:57;;;;;;;6.63;5.32;;;;;;;13.63;91.27;97072.22;5220217;56;20122;-74
2021/09/01 06:01:02;;;;;;;7.15;6.20;;;;;;;13.56;93.54;97064.22;5219902;56;20127;-74
2021/09/01 06:06:05;;;;;;;12.73;7.15;;;;;;;13.70;94.30;97069.13;5221044;56;20725;-74
2021/09/01 06:11:08;;;;;;;7.40;6.60;;;;;;;13.82;94.19;97073.00;5240486;56;20126;-74
2021/09/01 06:16:10;;;;;;;12.63;7.20;;;;;;;14.08;93.63;97066.59;5212368;56;20582;-75
2021/09/01 06:21:13;;;;;;;9.45;6.78;;;;;;;14.19;93.39;97066.88;5220369;56;20119;-73
2021/09/01 06:26:15;;;;;;;9.73;6.95;;;;;;;14.31;92.83;97085.38;5222061;56;20209;-75
2021/09/01 06:31:19;;;;;;;11.68;7.72;;;;;;;14.55;92.87;97093.03;5223105;56;20888;-74
2021/09/01 06:36:23;;;;;;;9.40;7.07;;;;;;;14.72;92.35;97105.34;5223149;56;20683;-74
2021/09/01 06:41:26;;;;;;;11.18;7.90;;;;;;;14.98;91.00;97106.44;5223124;56;20122;-74
2021/09/01 06:46:29;;;;;;;10.88;7.13;;;;;;;14.91;91.12;97098.41;5222601;56;20157;-74
2021/09/01 06:51:33;;;;;;;11.27;7.55;;;;;;;15.29;89.42;97094.97;5222696;56;20657;-74
2021/09/01 06:56:35;;;;;;;14.10;7.47;;;;;;;15.51;88.93;97092.66;5222838;56;20191;-75
2021/09/01 07:01:38;;;;;;;11.65;7.28;;;;;;;15.62;88.04;97090.09;5222824;56;20118;-75
2021/09/01 07:06:40;;;;;;;11.60;7.15;;;;;;;15.92;86.57;97100.00;5239379;56;20112;-74
2021/09/01 07:11:43;;;;;;;9.05;7.00;;;;;;;16.68;84.73;97110.25;5243119;56;20134;-73
2021/09/01 07:16:45;;;;;;;10.48;7.05;;;;;;;17.20;79.63;97112.03;5242786;56;20130;-74
2021/09/01 07:21:47;;;;;;;6.93;6.07;;;;;;;17.36;78.41;97121.13;5243138;56;20113;-74
2021/09/01 07:26:50;;;;;;;7.57;5.78;;;;;;;17.55;75.31;97136.41;5243008;56;20674;-74
2021/09/01 07:31:52;;;;;;;7.68;5.70;;;;;;;17.52;76.85;97142.97;5243044;56;20160;-72
2021/09/01 07:36:54;;;;;;;6.95;5.85;;;;;;;17.46;73.89;97142.09;5242675;56;20818;-75
2021/09/01 07:41:57;;;;;;;6.45;5.05;;;;;;;17.62;74.04;97138.75;5242656;56;20591;-73
2021/09/01 07:46:59;;;;;;;6.47;5.60;;;;;;;17.28;74.04;97148.69;5238920;56;20670;-73
2021/09/01 07:52:03;;;;;;;6.93;5.55;;;;;;;17.05;76.74;97155.97;5236168;56;20129;-74
2021/09/01 07:57:05;;;;;;;5.95;5.35;;;;;;;17.69;74.96;97155.88;5232739;56;20322;-75
2021/09/01 08:02:07;;;;;;;6.30;4.63;;;;;;;17.46;72.26;97161.66;5238107;56;20117;-72
2021/09/01 08:07:10;;;;;;;5.50;4.63;;;;;;;17.55;71.05;97170.69;5236875;56;20242;-72
2021/09/01 08:12:12;;;;;;;6.00;5.10;;;;;;;17.56;70.26;97163.06;5232548;56;20169;-72
2021/09/01 08:17:16;;;;;;;6.68;4.63;;;;;;;17.52;70.95;97176.50;5232387;56;20222;-72
2021/09/01 08:22:18;;;;;;;6.32;4.80;;;;;;;17.82;71.50;97175.13;5230179;56;20117;-72
2021/09/01 08:27:20;;;;;;;8.27;5.15;;;;;;;18.59;69.67;97175.19;5234890;56;20108;-72
2021/09/01 08:32:23;;;;;;;5.50;4.35;;;;;;;19.52;67.81;97179.22;5227303;56;20145;-72
2021/09/01 08:37:25;;;;;;;8.43;4.28;;;;;;;20.65;60.62;97175.06;5229077;56;20175;-72
2021/09/01 08:42:28;;;;;;;4.88;4.25;;;;;;;19.88;60.63;97184.78;5237486;56;20114;-72
2021/09/01 08:47:31;;;;;;;7.65;4.22;;;;;;;19.05;63.90;97183.47;5226222;56;20179;-72
2021/09/01 08:52:37;;;;;;;5.07;4.57;;;;;;;17.30;70.27;97176.91;5225917;56;20239;-72
2021/09/01 08:57:40;;;;;;;6.97;5.05;;;;;;;17.67;70.30;97177.97;5225939;56;20246;-73
2021/09/01 09:02:52;;;;;;;4.18;3.75;;;;;;;18.19;66.19;97184.44;5222698;56;20129;-73
2021/09/01 09:07:55;;;;;;;5.30;3.88;;;;;;;19.23;65.58;97175.47;5222018;56;20117;-75
2021/09/01 09:13:03;;;;;;;4.40;3.58;;;;;;;20.54;56.14;97175.03;5230968;56;20604;-74
2021/09/01 09:18:41;;;;;;;3.97;3.53;;;;;;;22.35;51.44;97169.63;5230539;56;20121;-74
2021/09/01 09:23:45;;;;;;;5.13;3.70;;;;;;;22.85;51.34;97180.59;5183394;56;20127;-75
2021/09/01 09:29:07;;;;;;;5.53;4.30;;;;;;;22.88;51.62;97173.16;5241077;56;20173;-74
2021/09/01 09:34:12;;;;;;;6.30;4.03;;;;;;;23.06;50.55;97166.84;5233251;56;20135;-72
2021/09/01 09:39:14;;;;;;;5.00;4.10;;;;;;;23.48;48.84;97169.03;5228770;56;20109;-73
2021/09/01 09:44:26;;;;;;;3.83;3.42;;;;;;;24.29;46.32;97161.47;5236879;56;20114;-75
2021/09/01 09:49:30;;;;;;;5.13;3.70;;;;;;;24.68;43.88;97175.78;5223384;56;20113;-75
2021/09/01 09:54:33;;;;;;;3.30;3.00;;;;;;;25.09;42.02;97178.25;5235173;56;20122;-75
2021/09/01 09:59:36;;;;;;;4.38;3.28;;;;;;;24.42;42.25;97175.66;5227400;56;20108;-75
2021/09/01 10:04:38;;;;;;;3.90;3.35;;;;;;;24.68;42.91;97164.47;5231753;56;20657;-75
2021/09/01 10:09:41;;;;;;;4.53;3.47;;;;;;;24.07;44.31;97168.16;5232471;56;20118;-75
2021/09/01 10:14:44;;;;;;;4.53;3.38;;;;;;;25.41;39.33;97167.66;5223025;56;20114;-77
2021/09/01 10:19:46;;;;;;;3.95;3.40;;;;;;;23.11;43.39;97160.41;5222706;56;21059;-76
2021/09/01 10:24:49;;;;;;;3.88;3.58;;;;;;;22.84;44.90;97160.09;5222649;56;20140;-73
2021/09/01 10:29:58;;;;;;;3.22;2.92;;;;;;;25.07;41.02;97156.19;5222233;56;20175;-76
2021/09/01 10:35:11;;;;;;;4.60;3.33;;;;;;;26.03;38.21;97153.91;5222618;56;20170;-77
2021/09/01 10:40:23;;;;;;;3.50;3.20;;;;;;;24.49;43.20;97146.78;5222279;56;20132;-76
2021/09/01 10:45:31;;;;;;;9.27;3.60;;;;;;;22.82;48.50;97142.94;5221930;56;20578;-75
2021/09/01 10:50:35;;;;;;;3.50;3.20;;;;;;;22.39;51.15;97136.31;5222760;56;20699;-75
2021/09/01 10:55:56;;;;;;;7.18;3.45;;;;;;;24.98;44.08;97145.28;5222351;56;20131;-75
2021/09/01 11:01:09;;;;;;;4.13;3.72;;;;;;;25.54;41.54;97145.06;5222308;56;20800;-75
2021/09/01 11:06:15;;;;;;;3.38;3.05;;;;;;;23.42;44.57;97142.94;5237967;56;20116;-77
2021/09/01 11:11:17;;;;;;;3.80;3.47;;;;;;;24.13;48.13;97143.44;5242999;56;20198;-75
2021/09/01 11:16:21;;;;;;;3.20;2.90;;;;;;;24.60;42.02;97149.44;5243078;56;20135;-75
2021/09/01 11:21:23;;;;;;;4.03;3.35;;;;;;;25.33;40.12;97144.16;5236136;56;20122;-75
2021/09/01 11:26:31;;;;;;;4.55;3.50;;;;;;;25.23;39.67;97145.88;5234396;56;20143;-76
2021/09/01 11:31:43;;;;;;;3.95;3.25;;;;;;;25.50;42.98;97150.28;5231781;56;20129;-76
2021/09/01 11:36:45;;;;;;;3.22;2.95;;;;;;;25.87;41.07;97135.16;5228921;56;20122;-76
2021/09/01 11:42:03;;;;;;;2.90;2.70;;;;;;;26.18;38.60;97132.22;5228296;56;20574;-77
2021/09/01 11:47:13;;;;;;;2.85;2.65;;;;;;;26.05;36.96;97134.28;5222056;56;20856;-75
2021/09/01 11:52:24;;;;;;;3.38;3.08;;;;;;;26.41;36.23;97132.50;5231359;56;20781;-76
2021/09/01 11:57:31;;;;;;;5.32;3.15;;;;;;;25.28;40.51;97145.78;5232980;56;20135;-76
2021/09/01 12:02:34;;;;;;;3.10;2.80;;;;;;;22.94;45.02;97151.31;5232295;56;20117;-77
2021/09/01 12:07:37;;;;;;;3.85;3.22;;;;;;;21.90;50.14;97142.97;5231073;56;20125;-77
2021/09/01 12:12:40;;;;;;;3.88;3.15;;;;;;;22.03;48.95;97143.16;5228757;56;20672;-75
2021/09/01 12:17:59;;;;;;;3.85;3.53;;;;;;;23.04;45.67;97141.25;5242091;56;20644;-75
2021/09/01 12:23:14;;;;;;;;;;;;;;;24.56;41.03;97144.09;5236060;56;20636;-76
2021/09/01 12:28:17;;;;;;;6.88;4.03;;;;;;;25.16;43.41;97138.03;5239475;56;19999;-77
2021/09/01 12:33:21;;;;;;;6.50;3.95;;;;;;;25.72;43.16;97132.09;5241099;56;20121;-75
2021/09/01 12:38:26;;;;;;;3.35;3.05;;;;;;;26.22;36.79;97137.53;5241571;56;20555;-75
2021/09/01 12:43:38;;;;;;;3.00;2.70;;;;;;;25.57;39.01;97130.59;5241493;56;20130;-76
2021/09/01 12:48:42;;;;;;;3.80;3.20;;;;;;;25.07;39.40;97132.78;5241222;56;20121;-75
2021/09/01 12:53:46;;;;;;;4.13;3.08;;;;;;;25.54;39.04;97123.19;5241367;56;20692;-75
2021/09/01 12:58:49;;;;;;;3.05;2.83;;;;;;;24.58;39.66;97120.97;5225487;56;20116;-76
2021/09/01 13:03:51;;;;;;;4.07;2.70;;;;;;;23.40;44.70;97112.47;5228226;56;20132;-75
2021/09/01 13:08:54;;;;;;;3.10;2.88;;;;;;;22.97;44.32;97122.06;5234447;56;20131;-76
2021/09/01 13:13:56;;;;;;;4.15;2.97;;;;;;;23.37;45.90;97112.75;5237045;56;20126;-76
2021/09/01 13:18:58;;;;;;;5.13;3.45;;;;;;;24.22;43.58;97112.72;5241342;56;20113;-76
2021/09/01 13:24:01;;;;;;;3.17;2.88;;;;;;;25.48;41.11;97111.22;5241782;56;20206;-75
2021/09/01 13:29:04;;;;;;;4.45;3.40;;;;;;;26.10;39.70;97102.25;5240711;56;20116;-76
2021/09/01 13:34:06;;;;;;;3.35;3.00;;;;;;;26.57;38.33;97097.31;5242519;56;20207;-76
2021/09/01 13:39:09;;;;;;;3.45;3.15;;;;;;;25.88;39.62;97106.31;5244094;56;20143;-76
2021/09/01 13:44:13;;;;;;;3.40;3.10;;;;;;;25.56;40.26;97103.59;5240624;56;20611;-75
2021/09/01 13:49:15;;;;;;;3.50;3.20;;;;;;;23.49;42.46;97102.88;5228800;56;20118;-76
2021/09/01 13:54:17;;;;;;;3.50;3.20;;;;;;;22.36;43.96;97097.94;5230500;56;20127;-76
2021/09/01 13:59:20;;;;;;;3.20;2.92;;;;;;;22.14;45.55;97089.63;5231683;56;20116;-77
2021/09/01 14:04:22;;;;;;;3.10;2.90;;;;;;;24.00;43.87;97086.81;5243872;56;20135;-76
2021/09/01 14:09:24;;;;;;;4.47;3.08;;;;;;;24.65;42.61;97090.00;5243558;56;20113;-76
2021/09/01 14:14:27;;;;;;;3.30;2.83;;;;;;;25.19;41.66;97083.19;5243492;56;20143;-77
2021/09/01 14:19:31;;;;;;;3.13;2.83;;;;;;;25.63;39.58;97071.81;5243210;56;20117;-76
2021/09/01 14:24:33;;;;;;;3.20;3.00;;;;;;;24.97;39.12;97075.84;5242291;56;20828;-76
2021/09/01 14:29:42;;;;;;;3.72;3.10;;;;;;;23.86;40.45;97073.94;5224812;56;20105;-75
2021/09/01 14:34:44;;;;;;;5.00;3.00;;;;;;;22.71;46.21;97069.78;5223068;56;20188;-76
2021/09/01 14:39:47;;;;;;;4.03;3.30;;;;;;;21.78;45.70;97069.06;5222484;56;20122;-77
2021/09/01 14:44:49;;;;;;;3.63;3.22;;;;;;;21.59;46.26;97062.53;5222377;56;20586;-77
2021/09/01 14:49:53;;;;;;;3.17;2.88;;;;;;;22.82;45.44;97054.81;5222402;56;20131;-77
2021/09/01 14:54:55;;;;;;;3.28;2.97;;;;;;;23.39;43.51;97056.56;5230497;56;20121;-77
2021/09/01 14:59:57;;;;;;;4.20;2.90;;;;;;;23.13;41.41;97045.81;5243499;56;20150;-77
2021/09/01 15:05:01;;;;;;;3.15;2.85;;;;;;;23.07;42.09;97035.88;5241734;56;20108;-77
2021/09/01 15:10:04;;;;;;;3.22;2.50;;;;;;;23.03;44.24;97033.34;5243005;56;20125;-77
2021/09/01 15:15:09;;;;;;;3.00;2.70;;;;;;;22.80;44.96;97024.34;5243811;56;20130;-77
2021/09/01 15:20:13;;;;;;;3.45;2.67;;;;;;;22.59;43.49;97034.50;5243262;56;20121;-77
2021/09/01 15:25:17;;;;;;;3.17;2.80;;;;;;;22.12;43.85;97027.44;5243261;56;20139;-77
2021/09/01 15:30:23;;;;;;;2.83;2.63;;;;;;;21.81;47.46;97027.88;5242848;56;20653;-77
2021/09/01 15:35:25;;;;;;;3.15;2.85;;;;;;;21.51;48.23;97019.34;5237312;56;20130;-74
2021/09/01 15:40:33;;;;;;;3.00;2.75;;;;;;;21.37;45.69;97020.44;5243384;56;20117;-76
2021/09/01 15:45:37;;;;;;;5.67;2.80;;;;;;;21.16;45.30;97013.59;5242007;56;20135;-76
2021/09/01 15:50:40;;;;;;;3.08;2.78;;;;;;;21.12;45.27;97018.75;5240280;56;20232;-77
2021/09/01 15:55:43;;;;;;;2.63;2.42;;;;;;;20.60;48.38;97018.56;5243048;56;20183;-78
2021/09/01 16:00:49;;;;;;;3.10;2.80;;;;;;;20.22;50.26;97024.97;5235190;56;20203;-78
2021/09/01 16:05:52;;;;;;;2.80;2.55;;;;;;;20.31;51.75;97027.53;5245282;56;20112;-78
2021/09/01 16:10:56;;;;;;;2.75;2.45;;;;;;;20.17;51.79;97034.88;5236195;56;20099;-78
2021/09/01 16:16:08;;;;;;;4.25;2.80;;;;;;;20.12;50.74;97030.03;5245238;56;20329;-78
2021/09/01 16:21:31;;;;;;;2.92;2.65;;;;;;;19.93;50.27;97026.16;5244831;56;20118;-78
2021/09/01 16:26:38;;;;;;;4.20;2.58;;;;;;;19.86;51.77;97024.63;5244439;56;20113;-78
2021/09/01 16:31:41;;;;;;;3.72;2.80;;;;;;;19.77;51.43;97022.06;5243732;56;20658;-78
2021/09/01 16:36:44;;;;;;;2.92;2.40;;;;;;;19.54;52.44;97028.88;5228435;56;20114;-75
2021/09/01 16:41:50;;;;;;;3.70;2.70;;;;;;;19.48;53.36;97030.91;5221682;56;20710;-76
2021/09/01 16:46:56;;;;;;;2.92;2.63;;;;;;;19.44;55.74;97024.78;5252965;56;20118;-76
2021/09/01 16:52:00;;;;;;;2.78;2.55;;;;;;;19.37;54.56;97025.25;5242885;56;20599;-78
2021/09/01 16:57:16;;;;;;;2.83;2.60;;;;;;;19.31;56.54;97030.03;5243866;56;20113;-77
2021/09/01 17:02:19;;;;;;;3.53;3.08;;;;;;;19.08;58.88;97026.38;5240602;56;20130;-77
2021/09/01 17:07:22;;;;;;;2.55;2.30;;;;;;;18.95;57.74;97011.28;5234856;56;20736;-76
2021/09/01 17:12:25;;;;;;;2.92;2.40;;;;;;;18.82;57.46;97019.34;5234978;56;20139;-77
2021/09/01 17:17:28;;;;;;;3.40;2.67;;;;;;;18.45;60.04;97027.75;5243353;56;20117;-78
2021/09/01 17:22:32;;;;;;;3.88;2.55;;;;;;;18.23;59.88;97031.09;5249151;56;20130;-76
2021/09/01 17:27:41;;;;;;;2.97;2.53;;;;;;;17.98;63.87;97026.28;5243541;56;20648;-77
2021/09/01 17:32:49;;;;;;;2.78;2.58;;;;;;;17.59;64.57;97019.56;5235117;56;20125;-77
2021/09/01 17:38:06;;;;;;;4.93;3.00;;;;;;;17.32;67.79;97042.34;5228174;56;20125;-78
2021/09/01 17:43:08;;;;;;;3.10;2.60;;;;;;;17.32;67.14;97036.75;5230390;56;20358;-76
2021/09/01 17:48:12;;;;;;;4.28;3.03;;;;;;;16.99;70.85;97040.66;5229005;56;20108;-76
2021/09/01 17:53:15;;;;;;;3.03;2.72;;;;;;;16.81;74.08;97040.13;5228104;56;20132;-77
2021/09/01 17:58:18;;;;;;;3.03;2.38;;;;;;;16.57;76.16;97034.72;5230532;56;20118;-78
2021/09/01 18:03:20;;;;;;;2.90;2.40;;;;;;;16.34;77.84;97046.75;5231981;56;20108;-77
2021/09/01 18:08:23;;;;;;;4.00;3.10;;;;;;;16.21;78.63;97043.50;5219699;56;20114;-77
2021/09/01 18:13:26;;;;;;;6.68;3.25;;;;;;;16.07;79.38;97047.06;5232991;56;20125;-77
2021/09/01 18:18:29;;;;;;;3.55;2.88;;;;;;;15.96;80.53;97064.38;5236303;56;20129;-76
2021/09/01 18:23:31;;;;;;;5.30;2.85;;;;;;;15.74;81.81;97066.75;5241255;56;20360;-78
2021/09/01 18:28:35;;;;;;;3.03;2.78;;;;;;;15.52;82.11;97069.88;5245244;56;20112;-78
2021/09/01 18:33:38;;;;;;;3.45;2.75;;;;;;;15.31;82.69;97072.97;5245094;56;20602;-76
2021/09/01 18:38:41;;;;;;;2.92;2.70;;;;;;;15.22;82.97;97073.03;5244282;56;20143;-76
2021/09/01 18:43:50;;;;;;;2.97;2.63;;;;;;;15.22;83.25;97078.59;5245006;56;20130;-76
2021/09/01 18:48:53;;;;;;;;;;;;;;;15.33;82.60;97076.81;5248708;56;20126;-76
2021/09/01 18:53:56;;;;;;;3.22;2.60;;;;;;;14.93;83.59;97082.78;5252836;56;19988;-76
2021/09/01 18:58:58;;;;;;;2.53;2.33;;;;;;;14.73;84.26;97090.16;5251021;56;20143;-77
2021/09/01 19:04:02;;;;;;;3.15;2.85;;;;;;;14.62;85.05;97087.91;5250297;56;20116;-77
2021/09/01 19:09:10;;;;;;;8.10;2.95;;;;;;;14.40;85.92;97092.94;5248856;56;20131;-77
2021/09/01 19:14:16;;;;;;;3.42;2.38;;;;;;;14.44;85.77;97098.31;5248568;56;20636;-78
2021/09/01 19:19:18;;;;;;;3.00;2.70;;;;;;;14.40;85.23;97103.28;5246881;56;20109;-78
2021/09/01 19:24:21;;;;;;;4.70;3.33;;;;;;;14.25;86.45;97101.13;5246617;56;20131;-78
2021/09/01 19:29:23;;;;;;;3.53;2.80;;;;;;;14.23;86.32;97094.50;5245643;56;20131;-78
2021/09/01 19:34:26;;;;;;;3.65;2.78;;;;;;;14.00;86.70;97103.53;5235322;56;20126;-78
2021/09/01 19:39:29;;;;;;;4.07;2.95;;;;;;;13.82;87.33;97107.06;5244334;56;20180;-78
2021/09/01 19:44:32;;;;;;;3.17;2.85;;;;;;;13.79;88.25;97108.03;5244973;56;20148;-78
2021/09/01 19:49:35;;;;;;;3.40;2.92;;;;;;;13.70;88.53;97110.81;5243994;56;20121;-77
2021/09/01 19:54:40;;;;;;;4.20;2.80;;;;;;;13.65;87.98;97111.41;5235783;56;20126;-78
2021/09/01 19:59:43;;;;;;;5.05;3.15;;;;;;;13.38;88.41;97111.41;5246919;56;20108;-76
2021/09/01 20:04:45;;;;;;;4.45;2.85;;;;;;;13.26;88.53;97101.97;5251782;56;20134;-78
2021/09/01 20:09:48;;;;;;;5.78;2.90;;;;;;;13.20;88.88;97114.16;5243108;56;20126;-78
2021/09/01 20:14:51;;;;;;;3.25;2.95;;;;;;;13.16;88.78;97119.09;5233733;56;20139;-79
2021/09/01 20:25:17;;;;;;;3.30;3.00;;;;;;;13.23;88.91;97116.78;5263947;56;20252;-78
2021/09/01 20:30:19;;;;;;;3.75;3.10;;;;;;;13.18;89.02;97105.53;5264223;56;20129;-77
2021/09/01 20:35:23;;;;;;;3.85;2.65;;;;;;;13.22;88.40;97112.47;5254771;56;20670;-78
2021/09/01 20:40:25;;;;;;;4.93;2.42;;;;;;;12.88;88.53;97110.69;5243852;56;20190;-78
2021/09/01 20:45:32;;;;;;;3.58;3.28;;;;;;;12.86;89.33;97118.69;5258087;56;20111;-79
2021/09/01 20:50:35;;;;;;;6.05;2.83;;;;;;;12.79;89.22;97120.97;5252849;56;20108;-77
2021/09/01 20:55:38;;;;;;;3.58;2.78;;;;;;;12.67;89.47;97130.94;5260345;56;20619;-75
2021/09/01 21:00:42;;;;;;;4.00;3.13;;;;;;;12.68;90.02;97123.41;5254199;56;20138;-77
2021/09/01 21:05:45;;;;;;;3.30;2.80;;;;;;;12.58;89.82;97119.03;5251992;56;20438;-78
2021/09/01 21:10:47;;;;;;;5.43;3.08;;;;;;;12.58;89.92;97127.34;5253910;56;20116;-78
2021/09/01 21:16:03;;;;;;;4.35;3.50;;;;;;;12.64;90.00;97120.75;5255303;56;20175;-79
2021/09/01 21:21:10;;;;;;;6.63;3.00;;;;;;;12.43;90.06;97118.81;5264597;56;20125;-79
2021/09/01 21:26:13;;;;;;;3.38;3.08;;;;;;;12.33;90.20;97111.69;5252294;56;20125;-77
2021/09/01 21:31:18;;;;;;;4.43;3.53;;;;;;;12.46;89.54;97115.13;5251232;56;20130;-78
2021/09/01 21:36:21;;;;;;;4.60;3.30;;;;;;;12.30;90.36;97118.16;5254165;56;20818;-79
2021/09/01 21:41:23;;;;;;;4.78;3.17;;;;;;;12.26;90.77;97117.50;5262478;56;20134;-78
2021/09/01 21:46:25;;;;;;;3.75;3.30;;;;;;;12.16;90.39;97113.91;5263529;56;20155;-78
2021/09/01 21:51:28;;;;;;;3.40;3.10;;;;;;;12.07;90.64;97115.88;5262885;56;20116;-77
2021/09/01 21:56:31;;;;;;;4.20;3.50;;;;;;;12.28;90.15;97117.81;5257875;56;20120;-78
2021/09/01 22:01:34;;;;;;;5.28;3.30;;;;;;;12.11;90.50;97111.72;5268931;56;20683;-78
2021/09/01 22:06:36;;;;;;;3.33;2.78;;;;;;;12.08;90.76;97120.16;5265178;56;20165;-78
2021/09/01 22:11:39;;;;;;;3.83;2.92;;;;;;;12.00;90.63;97125.22;5272823;56;20120;-78
2021/09/01 22:16:41;;;;;;;4.82;2.95;;;;;;;11.88;90.58;97130.81;5271703;56;20209;-78
2021/09/01 22:21:44;;;;;;;3.85;2.97;;;;;;;11.97;90.44;97122.56;5268905;56;20581;-77
2021/09/01 22:26:46;;;;;;;3.60;3.10;;;;;;;11.87;90.42;97127.25;5266344;56;20197;-78
2021/09/01 22:31:49;;;;;;;4.32;3.15;;;;;;;11.68;90.57;97130.34;5268492;56;20165;-77
2021/09/01 22:36:51;;;;;;;3.35;3.05;;;;;;;11.61;91.05;97131.34;5267651;56;20704;-78
2021/09/01 22:41:53;;;;;;;5.00;3.25;;;;;;;11.50;90.98;97128.97;5268469;56;20142;-79
2021/09/01 22:46:57;;;;;;;3.47;3.13;;;;;;;11.41;90.84;97125.34;5259214;56;20129;-78
2021/09/01 22:52:00;;;;;;;3.58;3.20;;;;;;;11.38;90.79;97135.31;5263417;56;20134;-78
2021/09/01 22:57:03;;;;;;;4.90;3.38;;;;;;;11.30;90.79;97130.47;5257200;56;20126;-78
2021/09/01 23:02:05;;;;;;;4.82;3.35;;;;;;;11.25;91.23;97125.50;5250509;56;20113;-78
2021/09/01 23:07:08;;;;;;;5.10;3.55;;;;;;;11.23;91.33;97117.66;5245949;56;20189;-78
2021/09/01 23:12:11;;;;;;;3.63;3.28;;;;;;;11.17;91.21;97111.13;5245655;56;20113;-78
2021/09/01 23:17:13;;;;;;;3.13;2.83;;;;;;;11.33;91.80;97110.97;5246039;56;20126;-77
2021/09/01 23:22:17;;;;;;;2.17;2.08;;;;;;;11.17;91.33;97116.66;5246309;56;20117;-77
2021/09/01 23:27:19;;;;;;;2.90;2.70;;;;;;;11.01;91.63;97110.50;5246164;56;20585;-79
2021/09/01 23:32:21;;;;;;;2.90;2.70;;;;;;;10.96;91.75;97120.16;5246938;56;20126;-78
2021/09/01 23:37:24;;;;;;;5.43;3.50;;;;;;;10.84;91.79;97118.16;5246779;56;20590;-79
2021/09/01 23:42:27;;;;;;;3.55;3.22;;;;;;;10.89;91.20;97117.63;5247202;56;20129;-78
2021/09/01 23:47:29;;;;;;;3.40;3.08;;;;;;;10.81;91.88;97106.00;5247202;56;20143;-78
2021/09/01 23:52:32;;;;;;;4.13;3.22;;;;;;;10.82;91.62;97109.56;5256333;56;20112;-78
2021/09/01 23:57:34;;;;;;;3.28;2.97;;;;;;;10.76;91.30;97087.22;5267895;56;20100;-79
